Time;durP1;ratioP1;P1;durP2;ratioP2;P2;SDS_P1;SDS_P2;PMS_P1;PMS_P2;Temp;Humidity;BMP_temperature;BMP_pressure;BME280_temperature;BME280_humidity;BME280_pressure;Samples;Min_cycle;Max_cycle;Signal;HPM_P1;HPM_P2
2022/09/08 00:02:06;;;;;;;25.05;15.05;;;17.90;99.90;;;;;;5072574;28;20033;-70
2022/09/08 00:04:32;;;;;;;18.98;15.15;;;17.80;99.90;;;;;;5072286;28;20037;-70
2022/09/08 00:07:01;;;;;;;19.35;14.88;;;17.70;99.90;;;;;;5070963;28;20045;-70
2022/09/08 00:09:30;;;;;;;18.27;14.85;;;17.70;99.90;;;;;;5072109;28;20036;-70
2022/09/08 00:11:57;;;;;;;18.20;15.93;;;17.80;99.90;;;;;;5072095;28;20494;-70
2022/09/08 00:14:23;;;;;;;17.80;14.73;;;17.90;99.90;;;;;;5072111;28;20037;-70
2022/09/08 00:16:49;;;;;;;19.77;16.08;;;17.70;99.90;;;;;;5071998;28;20044;-70
2022/09/08 00:19:15;;;;;;;19.30;15.85;;;17.90;99.90;;;;;;5071752;28;20406;-70
2022/09/08 00:21:41;;;;;;;19.73;15.15;;;17.80;99.90;;;;;;5070704;28;20040;-70
2022/09/08 00:24:07;;;;;;;19.58;16.55;;;17.80;99.90;;;;;;5072133;28;20406;-70
2022/09/08 00:26:32;;;;;;;23.63;16.65;;;18.00;99.90;;;;;;5071989;28;20045;-70
2022/09/08 00:28:58;;;;;;;20.00;16.40;;;17.70;99.90;;;;;;5071996;28;20112;-70
2022/09/08 00:31:23;;;;;;;20.88;17.88;;;17.70;99.90;;;;;;5071486;28;20052;-70
2022/09/08 00:33:49;;;;;;;20.40;18.00;;;17.90;99.90;;;;;;5071601;28;20086;-70
2022/09/08 00:36:16;;;;;;;19.23;17.17;;;17.70;99.90;;;;;;5071997;28;20043;-70
2022/09/08 00:38:52;;;;;;;24.40;19.08;;;17.70;99.90;;;;;;5071991;28;20067;-70
2022/09/08 00:41:22;;;;;;;24.42;20.85;;;17.80;99.90;;;;;;5070263;28;20079;-70
2022/09/08 00:43:50;;;;;;;25.63;21.50;;;17.60;99.90;;;;;;5071728;28;20040;-70
2022/09/08 00:46:21;;;;;;;29.08;21.10;;;17.50;99.90;;;;;;5071500;28;20119;-70
2022/09/08 00:49:04;;;;;;;27.75;22.08;;;17.50;99.90;;;;;;5071792;28;20051;-70
2022/09/08 00:51:31;;;;;;;27.92;22.98;;;17.50;99.90;;;;;;5071540;28;20044;-70
2022/09/08 00:53:58;;;;;;;29.60;23.25;;;17.50;99.90;;;;;;5071547;28;20494;-70
2022/09/08 00:56:26;;;;;;;30.35;24.42;;;17.60;99.90;;;;;;5071651;28;20090;-70
2022/09/08 00:58:52;;;;;;;27.63;24.25;;;17.40;99.90;;;;;;5071380;28;20090;-70
2022/09/08 01:01:18;;;;;;;28.95;25.02;;;17.30;99.90;;;;;;5071224;28;20102;-70
2022/09/08 01:03:43;;;;;;;31.98;27.25;;;17.50;99.90;;;;;;5071570;28;20170;-70
2022/09/08 01:12:43;;;;;;;32.50;25.95;;;17.40;99.90;;;;;;5071598;28;20490;-70
2022/09/08 01:15:06;;;;;;;33.00;26.85;;;17.30;99.90;;;;;;5075467;28;20036;-70
2022/09/08 01:17:32;;;;;;;33.78;29.10;;;17.50;99.90;;;;;;5075479;28;20486;-70
2022/09/08 01:20:00;;;;;;;32.65;28.02;;;17.40;99.90;;;;;;5075318;28;20041;-70
2022/09/08 01:22:53;;;;;;;35.97;28.75;;;17.40;99.90;;;;;;5075307;28;20565;-70
2022/09/08 01:25:28;;;;;;;34.97;29.42;;;17.30;99.90;;;;;;5075361;28;20051;-70
2022/09/08 01:28:14;;;;;;;32.65;28.67;;;17.40;99.90;;;;;;5075243;28;20072;-70
2022/09/08 01:30:41;;;;;;;34.22;29.60;;;17.50;99.90;;;;;;5075150;28;20041;-70
2022/09/08 01:33:09;;;;;;;38.80;30.05;;;17.30;99.90;;;;;;5075112;28;20398;-70
2022/09/08 01:35:39;;;;;;;39.28;30.73;;;17.30;99.90;;;;;;5075163;28;20037;-70
2022/09/08 01:38:09;;;;;;;39.85;30.88;;;17.30;99.90;;;;;;5075140;28;20044;-70
2022/09/08 01:40:36;;;;;;;40.88;32.67;;;17.30;99.90;;;;;;5074617;28;20036;-70
2022/09/08 01:43:01;;;;;;;42.25;33.95;;;17.50;99.90;;;;;;5073731;28;20045;-70
2022/09/08 01:45:27;;;;;;;42.17;32.97;;;17.50;99.90;;;;;;5074892;28;20051;-70
2022/09/08 01:47:53;;;;;;;40.70;34.35;;;17.40;99.90;;;;;;5074974;28;20032;-70
2022/09/08 01:50:20;;;;;;;42.97;32.50;;;17.40;99.90;;;;;;5074570;28;20040;-70
2022/09/08 01:52:46;;;;;;;42.22;33.08;;;17.60;99.90;;;;;;5074659;28;20557;-68
2022/09/08 01:55:12;;;;;;;43.30;34.92;;;17.60;99.90;;;;;;5074486;28;20083;-68
2022/09/08 01:57:37;;;;;;;44.80;33.95;;;17.50;99.90;;;;;;5074853;28;20125;-68
2022/09/08 02:00:05;;;;;;;42.47;33.67;;;17.40;99.90;;;;;;5073002;28;20112;-68
2022/09/08 02:02:31;;;;;;;45.95;34.90;;;17.30;99.90;;;;;;5074671;28;20036;-68
2022/09/08 02:04:57;;;;;;;42.15;35.38;;;17.50;99.90;;;;;;5074548;28;20037;-68
2022/09/08 02:07:22;;;;;;;40.95;34.55;;;17.60;99.90;;;;;;5073353;28;20041;-69
2022/09/08 02:09:48;;;;;;;43.92;35.95;;;17.50;99.90;;;;;;5074201;28;20041;-68
2022/09/08 02:12:13;;;;;;;39.90;33.90;;;17.50;99.90;;;;;;5074502;28;20119;-68
2022/09/08 02:14:39;;;;;;;42.50;34.25;;;17.60;99.90;;;;;;5074609;28;20115;-69
2022/09/08 02:17:05;;;;;;;43.35;36.10;;;17.40;99.90;;;;;;5074528;28;20047;-69
2022/09/08 02:19:30;;;;;;;41.50;35.67;;;17.60;99.90;;;;;;5071775;28;20450;-68
2022/09/08 02:21:56;;;;;;;45.47;36.72;;;17.50;99.90;;;;;;5074437;28;20079;-68
2022/09/08 02:24:21;;;;;;;45.63;36.70;;;17.60;99.90;;;;;;5074288;28;20056;-68
2022/09/08 02:26:47;;;;;;;43.90;36.67;;;17.60;99.90;;;;;;5074515;28;20097;-68
2022/09/08 02:29:13;;;;;;;43.78;35.63;;;17.60;99.90;;;;;;5072976;28;20445;-68
2022/09/08 02:31:39;;;;;;;46.88;37.83;;;17.40;99.90;;;;;;5074117;28;20089;-68
2022/09/08 02:34:05;;;;;;;45.20;37.28;;;17.50;99.90;;;;;;5081813;22;20499;-69
2022/09/08 02:36:31;;;;;;;46.78;37.63;;;17.50;99.90;;;;;;5053951;28;20041;-69
2022/09/08 02:38:56;;;;;;;47.08;38.00;;;17.60;99.90;;;;;;5054096;28;20487;-69
2022/09/08 02:41:24;;;;;;;45.15;36.70;;;17.40;99.90;;;;;;5052534;28;20040;-69
2022/09/08 02:43:50;;;;;;;48.05;38.30;;;17.40;99.90;;;;;;5051964;28;20045;-69
2022/09/08 02:46:16;;;;;;;46.55;36.70;;;17.60;99.90;;;;;;5053823;28;20041;-69
2022/09/08 02:48:42;;;;;;;43.83;36.50;;;17.70;99.90;;;;;;5053798;28;20465;-69
2022/09/08 02:51:10;;;;;;;46.08;36.97;;;17.50;99.90;;;;;;5053253;28;20080;-69
2022/09/08 02:53:37;;;;;;;46.65;36.95;;;17.60;99.90;;;;;;5052158;28;20051;-69
2022/09/08 02:56:03;;;;;;;45.17;36.38;;;17.60;99.90;;;;;;5053587;28;20072;-69
2022/09/08 02:58:29;;;;;;;45.97;36.53;;;17.70;99.90;;;;;;5053639;28;20051;-69
2022/09/08 03:00:55;;;;;;;45.97;37.70;;;17.40;99.90;;;;;;5053407;28;20037;-69
2022/09/08 03:03:22;;;;;;;48.35;38.35;;;17.70;99.90;;;;;;5052253;28;20037;-69
2022/09/08 03:05:48;;;;;;;51.42;40.67;;;17.60;99.90;;;;;;5053370;28;20051;-69
2022/09/08 03:08:15;;;;;;;50.10;41.63;;;17.40;99.90;;;;;;5053557;28;20040;-69
2022/09/08 03:10:41;;;;;;;50.65;41.20;;;17.60;99.90;;;;;;5053034;28;20436;-69
2022/09/08 03:13:08;;;;;;;52.78;40.05;;;17.70;99.90;;;;;;5051982;28;20119;-69
2022/09/08 03:15:34;;;;;;;52.08;40.95;;;17.30;99.90;;;;;;5053334;28;20033;-69
2022/09/08 03:18:04;;;;;;;50.55;40.53;;;17.40;99.90;;;;;;5051950;28;20041;-69
2022/09/08 03:20:31;;;;;;;50.10;41.58;;;17.50;99.90;;;;;;5051494;28;20071;-69
2022/09/08 03:22:58;;;;;;;52.55;42.58;;;17.50;99.90;;;;;;5053317;28;20065;-69
2022/09/08 03:25:24;;;;;;;54.00;43.22;;;17.50;99.90;;;;;;5053130;28;20053;-69
2022/09/08 03:27:50;;;;;;;55.13;43.45;;;17.40;99.90;;;;;;5052915;28;20522;-69
2022/09/08 03:30:17;;;;;;;53.53;40.72;;;17.50;99.90;;;;;;5052334;28;20033;-69
2022/09/08 03:32:45;;;;;;;53.65;40.97;;;17.50;99.90;;;;;;5051606;28;20487;-69
2022/09/08 03:35:12;;;;;;;51.47;40.17;;;17.60;99.90;;;;;;5053026;28;20037;-69
2022/09/08 03:37:38;;;;;;;54.97;42.80;;;17.40;99.90;;;;;;5051755;28;20045;-69
2022/09/08 03:40:06;;;;;;;57.80;44.60;;;17.40;99.90;;;;;;5052648;28;20029;-69
2022/09/08 03:42:36;;;;;;;54.50;43.25;;;17.50;99.90;;;;;;5051391;28;20090;-69
2022/09/08 03:45:05;;;;;;;54.28;43.22;;;17.60;99.90;;;;;;5052695;28;20037;-69
2022/09/08 03:47:30;;;;;;;54.28;41.05;;;17.60;99.90;;;;;;5034956;28;20518;-69
2022/09/08 03:49:56;;;;;;;56.30;43.35;;;17.30;99.90;;;;;;5052561;28;20041;-69
2022/09/08 03:52:22;;;;;;;57.95;43.63;;;17.60;99.90;;;;;;5052621;28;20037;-69
2022/09/08 03:54:48;;;;;;;57.95;43.95;;;17.50;99.90;;;;;;5052656;28;20033;-69
2022/09/08 03:57:16;;;;;;;56.22;44.47;;;17.60;99.90;;;;;;5052361;28;20041;-69
2022/09/08 03:59:42;;;;;;;61.25;44.90;;;17.60;99.90;;;;;;5050786;28;20087;-69
2022/09/08 04:02:08;;;;;;;57.08;43.83;;;17.30;99.90;;;;;;5052170;28;20080;-69
2022/09/08 04:04:34;;;;;;;51.55;42.03;;;17.50;99.90;;;;;;5052486;28;20056;-69
2022/09/08 04:07:01;;;;;;;56.90;44.78;;;17.70;99.90;;;;;;5050955;28;20041;-69
2022/09/08 04:09:26;;;;;;;55.92;42.85;;;17.70;99.90;;;;;;5052035;28;20028;-69
2022/09/08 04:11:52;;;;;;;57.80;45.65;;;17.70;99.90;;;;;;5052250;28;20044;-69
2022/09/08 04:14:19;;;;;;;60.55;45.50;;;17.50;99.90;;;;;;5052091;28;20033;-69
2022/09/08 04:16:44;;;;;;;56.70;44.40;;;17.60;99.90;;;;;;5051955;28;20045;-69
2022/09/08 04:19:10;;;;;;;57.85;43.00;;;17.50;99.90;;;;;;5052129;28;20045;-70
2022/09/08 04:21:36;;;;;;;54.83;42.83;;;17.50;99.90;;;;;;5051961;28;20044;-69
2022/09/08 04:24:02;;;;;;;55.67;43.83;;;17.60;99.90;;;;;;5051999;28;20048;-69
2022/09/08 04:26:28;;;;;;;52.15;42.25;;;17.50;99.90;;;;;;5052155;28;20120;-70
2022/09/08 04:28:53;;;;;;;56.50;42.30;;;17.70;99.90;;;;;;5051841;28;20119;-70
2022/09/08 04:31:19;;;;;;;54.40;42.85;;;17.60;99.90;;;;;;5051577;28;20041;-70
2022/09/08 04:33:45;;;;;;;53.33;43.78;;;17.50;99.90;;;;;;5051750;28;20036;-70
2022/09/08 04:36:19;;;;;;;56.03;42.45;;;17.80;99.90;;;;;;5051973;28;20457;-70
2022/09/08 04:38:45;;;;;;;53.90;42.25;;;17.80;99.90;;;;;;5051839;28;20033;-70
2022/09/08 04:41:14;;;;;;;53.53;41.47;;;17.70;99.90;;;;;;5051529;28;20040;-70
2022/09/08 04:43:40;;;;;;;57.83;44.28;;;17.60;99.90;;;;;;5050846;28;20056;-70
2022/09/08 04:46:11;;;;;;;53.85;40.75;;;17.70;99.90;;;;;;5051911;28;20052;-70
2022/09/08 04:48:38;;;;;;;57.50;44.47;;;17.80;99.90;;;;;;5051415;28;20068;-70
2022/09/08 04:51:05;;;;;;;54.90;44.42;;;17.60;99.90;;;;;;5051563;28;20474;-70
2022/09/08 04:53:33;;;;;;;54.03;42.75;;;17.60;99.90;;;;;;5051583;28;20071;-70
2022/09/08 04:56:00;;;;;;;56.58;43.05;;;17.60;99.90;;;;;;5051611;28;20047;-70
2022/09/08 04:58:29;;;;;;;54.65;42.50;;;17.70;99.90;;;;;;5050462;28;20037;-70
2022/09/08 05:01:02;;;;;;;52.67;40.10;;;17.70;99.90;;;;;;5051455;28;20040;-70
2022/09/08 05:03:27;;;;;;;50.88;41.75;;;17.70;99.90;;;;;;5051815;28;20387;-70
2022/09/08 05:05:53;;;;;;;57.80;41.72;;;17.60;99.90;;;;;;5051387;28;20112;-71
2022/09/08 05:08:19;;;;;;;51.78;39.90;;;17.70;99.90;;;;;;5050330;28;20041;-70
2022/09/08 05:10:47;;;;;;;52.92;41.13;;;17.60;99.90;;;;;;5051019;28;20392;-71
2022/09/08 05:13:12;;;;;;;50.92;39.78;;;17.90;99.90;;;;;;5051510;28;20037;-70
2022/09/08 05:15:38;;;;;;;50.03;41.65;;;17.60;99.90;;;;;;5051375;28;20041;-70
2022/09/08 05:18:03;;;;;;;50.53;39.28;;;17.90;99.90;;;;;;5051598;28;20045;-70
2022/09/08 05:20:29;;;;;;;52.78;42.35;;;17.70;99.90;;;;;;5051154;28;20041;-70
2022/09/08 05:22:55;;;;;;;55.72;42.13;;;17.70;99.90;;;;;;5051328;28;20145;-70
2022/09/08 05:25:21;;;;;;;49.33;40.15;;;17.60;99.90;;;;;;5051196;28;20095;-70
2022/09/08 05:27:48;;;;;;;51.90;42.72;;;17.70;99.90;;;;;;5051588;28;20037;-70
2022/09/08 05:30:14;;;;;;;48.53;38.50;;;17.60;99.90;;;;;;5049814;28;20059;-70
2022/09/08 05:32:41;;;;;;;57.47;42.55;;;17.80;99.90;;;;;;5051212;28;20037;-70
2022/09/08 05:35:07;;;;;;;53.60;42.72;;;17.90;99.90;;;;;;5051193;28;20071;-70
2022/09/08 05:37:33;;;;;;;52.22;41.33;;;17.70;99.90;;;;;;5051336;28;20070;-70
2022/09/08 05:39:59;;;;;;;52.05;40.35;;;17.80;99.90;;;;;;5050785;28;20060;-70
2022/09/08 05:42:25;;;;;;;54.40;43.75;;;17.80;99.90;;;;;;5051306;28;20498;-70
2022/09/08 05:44:50;;;;;;;55.60;42.17;;;17.80;99.90;;;;;;5050139;28;20040;-70
2022/09/08 05:47:16;;;;;;;53.67;42.28;;;17.70;99.90;;;;;;5051126;28;20048;-70
2022/09/08 05:49:41;;;;;;;55.03;42.58;;;18.00;99.90;;;;;;5050937;28;20041;-70
2022/09/08 05:52:07;;;;;;;56.72;43.03;;;17.80;99.90;;;;;;5051064;28;20033;-70
2022/09/08 05:54:32;;;;;;;52.30;41.42;;;17.90;99.90;;;;;;5052709;28;20403;-70
2022/09/08 05:56:58;;;;;;;53.38;41.65;;;17.70;99.90;;;;;;5054967;28;20041;-70
2022/09/08 05:59:23;;;;;;;49.22;40.80;;;17.70;99.90;;;;;;5054643;28;20095;-70
2022/09/08 06:01:49;;;;;;;52.38;41.60;;;17.70;99.90;;;;;;5054676;28;20045;-70
2022/09/08 06:04:15;;;;;;;54.63;41.45;;;17.80;99.90;;;;;;5054680;28;20456;-70
2022/09/08 06:06:43;;;;;;;55.95;42.10;;;17.80;99.90;;;;;;5054551;28;20045;-70
2022/09/08 06:09:10;;;;;;;52.53;42.25;;;17.70;99.90;;;;;;5053129;28;20033;-70
2022/09/08 06:11:36;;;;;;;51.15;41.95;;;17.80;99.90;;;;;;5054596;28;20083;-70
2022/09/08 06:14:02;;;;;;;54.72;42.72;;;17.70;99.90;;;;;;5054518;28;20073;-70
2022/09/08 06:16:29;;;;;;;52.85;42.40;;;18.10;99.90;;;;;;5054580;28;20044;-70
2022/09/08 06:18:57;;;;;;;51.40;41.35;;;17.80;99.90;;;;;;5054364;28;20106;-70
2022/09/08 06:21:25;;;;;;;51.53;40.55;;;18.10;99.90;;;;;;5054252;28;20052;-70
2022/09/08 06:23:53;;;;;;;54.13;40.17;;;17.90;99.90;;;;;;5054030;28;20048;-70
2022/09/08 06:26:50;;;;;;;55.33;42.63;;;18.10;99.90;;;;;;5052950;28;20247;-70
2022/09/08 06:29:29;;;;;;;50.63;40.28;;;18.10;99.90;;;;;;5052661;28;20029;-70
2022/09/08 06:32:02;;;;;;;52.03;41.17;;;17.90;99.90;;;;;;5054125;28;20037;-70
2022/09/08 06:34:50;;;;;;;51.65;41.10;;;17.90;99.90;;;;;;5053964;28;20100;-70
2022/09/08 06:37:27;;;;;;;51.90;42.88;;;17.80;99.90;;;;;;5053691;28;20041;-70
2022/09/08 06:40:17;;;;;;;49.92;41.80;;;18.00;99.90;;;;;;5049632;28;20120;-70
2022/09/08 06:42:55;;;;;;;50.08;40.22;;;17.90;99.90;;;;;;5013858;28;20181;-70
2022/09/08 06:45:24;;;;;;;55.08;41.60;;;17.90;99.90;;;;;;5052231;28;20032;-70
2022/09/08 06:48:16;;;;;;;59.42;43.88;;;17.80;99.90;;;;;;5035717;28;20037;-70
2022/09/08 06:51:01;;;;;;;58.83;45.13;;;17.70;99.90;;;;;;5042443;28;20057;-70
2022/09/08 06:53:33;;;;;;;58.47;46.00;;;17.90;99.90;;;;;;5053863;28;20120;-70
2022/09/08 06:56:12;;;;;;;58.97;45.67;;;17.90;99.90;;;;;;5053778;28;20091;-70
2022/09/08 06:58:41;;;;;;;58.47;45.28;;;17.70;99.90;;;;;;5053767;28;20037;-70
2022/09/08 07:01:22;;;;;;;60.65;46.70;;;17.70;99.90;;;;;;5053233;28;20047;-70
2022/09/08 07:04:09;;;;;;;58.08;46.65;;;17.60;99.90;;;;;;5053771;28;20041;-70
2022/09/08 07:07:03;;;;;;;53.22;46.15;;;17.70;99.90;;;;;;5052688;28;20040;-70
2022/09/08 07:10:04;;;;;;;58.78;47.55;;;17.90;99.90;;;;;;5053153;28;20164;-70
2022/09/08 07:12:41;;;;;;;65.88;49.90;;;17.70;99.90;;;;;;5053471;28;20056;-67
2022/09/08 07:15:17;;;;;;;57.75;45.30;;;17.90;99.90;;;;;;5053386;28;20064;-67
2022/09/08 07:18:14;;;;;;;61.30;49.65;;;17.60;99.90;;;;;;5053296;28;20085;-67
2022/09/08 07:20:40;;;;;;;57.75;46.60;;;17.80;99.90;;;;;;5053060;28;20041;-70
2022/09/08 07:23:24;;;;;;;58.30;48.22;;;17.90;99.90;;;;;;5053053;28;20033;-71
2022/09/08 07:26:16;;;;;;;57.90;47.10;;;17.80;99.90;;;;;;5050198;28;20045;-71
2022/09/08 07:28:45;;;;;;;58.83;46.00;;;17.70;99.90;;;;;;5052623;28;20037;-72
2022/09/08 07:31:23;;;;;;;61.88;49.38;;;17.50;99.90;;;;;;5052677;28;20033;-72
2022/09/08 07:33:52;;;;;;;67.82;50.42;;;17.50;99.90;;;;;;5051602;28;20509;-72
2022/09/08 07:36:27;;;;;;;67.38;53.10;;;17.50;99.90;;;;;;5052947;28;20052;-72
2022/09/08 07:38:58;;;;;;;67.00;53.20;;;17.60;99.90;;;;;;5052890;28;20037;-72
2022/09/08 07:41:30;;;;;;;63.75;52.05;;;17.50;99.90;;;;;;5052905;28;20037;-72
2022/09/08 07:43:59;;;;;;;67.28;51.17;;;17.70;99.90;;;;;;5052952;28;20112;-72
2022/09/08 07:46:53;;;;;;;70.10;53.83;;;17.60;99.90;;;;;;5052842;28;20045;-72
2022/09/08 07:49:27;;;;;;;;;;;17.50;99.90;;;;;;5051995;28;20040;-72
2022/09/08 07:51:58;;;;;;;67.55;53.90;;;17.40;99.90;;;;;;5053013;28;20302;-72
2022/09/08 07:54:42;;;;;;;63.30;51.88;;;17.30;99.90;;;;;;5053080;28;20037;-71
2022/09/08 07:57:25;;;;;;;69.00;52.30;;;17.60;99.90;;;;;;5053482;28;20041;-72
2022/09/08 08:00:03;;;;;;;69.57;52.33;;;17.70;99.90;;;;;;5053254;28;20111;-72
2022/09/08 08:02:34;;;;;;;74.20;55.85;;;17.30;99.90;;;;;;5052776;28;20526;-72
2022/09/08 08:05:25;;;;;;;72.45;52.15;;;17.50;99.90;;;;;;5052925;28;20094;-72
2022/09/08 08:08:16;;;;;;;68.00;49.58;;;17.60;99.90;;;;;;5052667;28;20041;-72
2022/09/08 08:10:47;;;;;;;66.38;46.80;;;17.40;99.90;;;;;;5053116;28;20127;-72
2022/09/08 08:13:28;;;;;;;63.53;43.92;;;17.40;99.90;;;;;;5052647;28;20037;-73
2022/09/08 08:16:02;;;;;;;61.70;45.53;;;17.30;99.90;;;;;;5052389;28;20052;-72
2022/09/08 08:18:52;;;;;;;54.28;42.55;;;17.20;99.90;;;;;;5052289;28;20094;-72
2022/09/08 08:21:28;;;;;;;54.05;41.38;;;17.60;99.90;;;;;;5052183;28;20102;-72
2022/09/08 08:24:18;;;;;;;56.20;41.17;;;17.40;99.90;;;;;;5052088;28;20457;-72
2022/09/08 08:26:49;;;;;;;56.17;41.20;;;17.40;99.90;;;;;;5052060;28;20116;-72
2022/09/08 08:29:31;;;;;;;48.53;38.22;;;17.60;99.90;;;;;;5051974;28;20406;-72
2022/09/08 08:32:11;;;;;;;48.17;36.72;;;17.60;99.90;;;;;;5052155;28;20063;-72
2022/09/08 08:34:48;;;;;;;49.70;38.97;;;17.70;99.90;;;;;;5090139;22;20403;-70
2022/09/08 08:37:20;;;;;;;50.63;38.72;;;17.60;99.90;;;;;;5072057;28;20036;-70
2022/09/08 08:39:49;;;;;;;52.72;38.78;;;17.70;99.90;;;;;;5071780;28;20037;-70
2022/09/08 08:43:04;;;;;;;50.83;39.47;;;17.40;99.90;;;;;;5071550;28;20233;-70
2022/09/08 08:45:40;;;;;;;43.90;35.65;;;17.90;99.90;;;;;;5049316;28;20516;-70
2022/09/08 08:48:27;;;;;;;47.78;36.63;;;17.90;99.90;;;;;;5049430;28;20128;-69
2022/09/08 08:51:06;;;;;;;51.80;39.63;;;17.90;99.90;;;;;;5050479;28;20132;-70
2022/09/08 08:53:47;;;;;;;50.88;38.47;;;17.60;99.90;;;;;;5050292;28;20407;-70
2022/09/08 08:56:21;;;;;;;49.63;37.95;;;18.00;99.90;;;;;;5051807;28;20099;-70
2022/09/08 08:59:08;;;;;;;52.70;39.22;;;17.60;99.90;;;;;;5051825;28;20532;-69
2022/09/08 09:01:40;;;;;;;49.58;38.28;;;17.80;99.90;;;;;;5051549;28;20128;-72
2022/09/08 09:04:53;;;;;;;48.75;39.72;;;17.70;99.90;;;;;;5051395;28;20047;-72
2022/09/08 09:07:39;;;;;;;52.65;39.30;;;18.10;99.90;;;;;;5051149;28;20051;-70
2022/09/08 09:10:42;;;;;;;56.13;39.50;;;18.10;99.90;;;;;;5051279;28;20040;-69
2022/09/08 09:13:36;;;;;;;53.03;38.27;;;18.00;99.90;;;;;;5051685;28;20040;-70
2022/09/08 09:16:23;;;;;;;55.10;39.63;;;18.00;99.90;;;;;;5051568;28;20414;-70
2022/09/08 09:19:22;;;;;;;49.47;37.33;;;17.60;99.90;;;;;;5051414;28;20041;-70
2022/09/08 09:21:51;;;;;;;47.33;37.42;;;18.00;99.90;;;;;;5051486;28;20068;-70
2022/09/08 09:24:36;;;;;;;48.10;37.72;;;17.70;99.90;;;;;;5051363;28;20048;-70
2022/09/08 09:27:36;;;;;;;46.08;34.33;;;18.10;99.90;;;;;;5051231;28;20046;-70
2022/09/08 09:30:23;;;;;;;45.45;36.42;;;17.70;99.90;;;;;;5050645;28;20059;-69
2022/09/08 09:32:52;;;;;;;43.88;33.97;;;17.80;99.90;;;;;;5055182;28;20087;-70
2022/09/08 09:36:00;;;;;;;43.08;32.65;;;17.70;99.90;;;;;;5055183;28;20399;-70
2022/09/08 09:38:52;;;;;;;43.65;33.08;;;18.10;99.90;;;;;;5055366;28;20073;-70
2022/09/08 09:41:52;;;;;;;38.10;28.80;;;17.80;99.90;;;;;;5054945;28;20506;-71
2022/09/08 09:44:45;;;;;;;40.42;29.65;;;17.80;99.90;;;;;;5055186;28;20052;-71
2022/09/08 09:47:20;;;;;;;35.65;27.23;;;17.90;99.90;;;;;;5055065;28;20045;-70
2022/09/08 09:49:57;;;;;;;40.72;27.65;;;18.20;99.90;;;;;;5054621;28;20084;-70
2022/09/08 09:52:55;;;;;;;28.15;22.40;;;17.80;99.90;;;;;;5054941;28;20087;-68
2022/09/08 09:55:42;;;;;;;26.02;20.52;;;17.70;99.90;;;;;;5054815;28;20398;-67
2022/09/08 09:58:43;;;;;;;23.90;19.65;;;17.80;99.90;;;;;;5054194;28;20071;-69
2022/09/08 10:01:52;;;;;;;23.92;19.67;;;18.30;99.90;;;;;;5043399;28;20056;-69
2022/09/08 10:04:48;;;;;;;22.02;17.80;;;18.00;99.90;;;;;;5049798;28;20028;-68
2022/09/08 10:07:17;;;;;;;30.33;18.38;;;18.10;99.90;;;;;;5052165;28;20064;-68
2022/09/08 10:10:24;;;;;;;21.88;15.70;;;18.40;99.90;;;;;;5054394;28;20075;-69
2022/09/08 10:13:23;;;;;;;45.30;18.15;;;18.40;99.90;;;;;;5031519;28;20065;-69
2022/09/08 10:16:10;;;;;;;18.25;12.20;;;18.30;99.90;;;;;;5053556;28;20041;-68
2022/09/08 10:19:00;;;;;;;14.95;12.60;;;18.20;99.90;;;;;;5054001;28;20033;-68
2022/09/08 10:21:54;;;;;;;13.80;11.02;;;18.20;99.90;;;;;;5053521;28;20392;-69
2022/09/08 10:24:19;;;;;;;;;;;18.00;99.90;;;;;;5053651;28;20494;-68
2022/09/08 10:27:23;;;;;;;13.70;9.57;;;18.40;99.90;;;;;;5053350;28;19974;-69
2022/09/08 10:29:51;;;;;;;14.77;9.95;;;18.40;99.90;;;;;;5053227;28;20044;-69
2022/09/08 10:33:10;;;;;;;11.10;8.07;;;18.40;99.90;;;;;;5053548;28;20032;-68
2022/09/08 10:35:42;;;;;;;8.55;7.32;;;18.20;99.90;;;;;;5053577;28;20621;-70
2022/09/08 10:38:19;;;;;;;8.98;8.05;;;18.10;99.90;;;;;;5053327;28;20025;-70
2022/09/08 10:40:56;;;;;;;12.25;9.40;;;18.20;99.90;;;;;;5049816;28;20073;-70
2022/09/08 10:43:37;;;;;;;11.18;9.30;;;18.10;99.90;;;;;;5052120;28;20406;-69
2022/09/08 10:46:38;;;;;;;11.65;8.45;;;18.30;99.90;;;;;;5050825;28;20044;-69
2022/09/08 10:49:35;;;;;;;9.73;6.90;;;18.40;99.90;;;;;;5053382;28;20041;-69
2022/09/08 10:52:42;;;;;;;9.55;7.07;;;18.50;99.90;;;;;;5051945;28;20398;-69
2022/09/08 10:55:27;;;;;;;9.40;6.55;;;18.50;99.90;;;;;;5015008;28;20514;-69
2022/09/08 10:58:18;;;;;;;7.13;6.28;;;18.10;99.90;;;;;;5045411;28;20053;-69
2022/09/08 11:00:54;;;;;;;7.93;6.13;;;18.40;99.90;;;;;;5053390;28;20048;-69
2022/09/08 11:03:45;;;;;;;8.48;6.45;;;18.10;99.90;;;;;;5053687;28;20072;-69
2022/09/08 11:06:44;;;;;;;9.48;5.55;;;18.10;99.90;;;;;;5053486;28;20048;-69
2022/09/08 11:09:17;;;;;;;7.38;5.47;;;18.30;99.90;;;;;;5044976;28;20418;-70
2022/09/08 11:12:14;;;;;;;8.68;5.70;;;18.10;99.90;;;;;;5053661;28;20103;-69
2022/09/08 11:15:06;;;;;;;7.47;5.55;;;18.10;99.90;;;;;;5053476;28;20041;-69
2022/09/08 11:17:47;;;;;;;6.18;5.50;;;18.10;99.90;;;;;;5053172;28;20525;-69
2022/09/08 11:20:57;;;;;;;5.72;5.13;;;18.30;99.90;;;;;;5053045;28;20056;-69
2022/09/08 11:23:44;;;;;;;4.05;3.47;;;18.00;99.90;;;;;;5013903;28;20052;-69
2022/09/08 11:26:23;;;;;;;4.13;3.20;;;17.90;99.90;;;;;;5029315;28;20084;-69
2022/09/08 11:29:11;;;;;;;5.72;2.97;;;18.10;99.90;;;;;;5042300;28;20132;-69
2022/09/08 11:31:41;;;;;;;5.00;2.53;;;17.80;99.90;;;;;;5052675;28;20065;-69
2022/09/08 11:34:32;;;;;;;3.25;2.30;;;17.80;99.90;;;;;;5052739;28;20045;-69
2022/09/08 11:37:25;;;;;;;2.92;2.25;;;17.80;99.90;;;;;;5051715;28;20052;-69
2022/09/08 11:39:58;;;;;;;;;;;17.90;99.90;;;;;;5051828;28;20052;-69
2022/09/08 11:42:47;;;;;;;2.67;2.17;;;17.70;99.90;;;;;;5052659;28;19917;-70
2022/09/08 11:45:45;;;;;;;3.75;2.28;;;17.80;99.90;;;;;;5052807;28;20051;-69
2022/09/08 11:48:43;;;;;;;4.13;2.60;;;17.80;99.90;;;;;;5052817;28;20505;-69
2022/09/08 11:51:46;;;;;;;4.60;2.40;;;17.60;99.90;;;;;;5051642;28;20406;-70
2022/09/08 11:54:29;;;;;;;5.43;2.47;;;17.90;99.90;;;;;;5052207;28;20060;-70
2022/09/08 11:57:17;;;;;;;;;;;17.80;99.90;;;;;;5052862;28;20558;-68
2022/09/08 12:00:13;;;;;;;4.55;2.78;;;17.90;99.90;;;;;;5050675;28;19916;-68
2022/09/08 12:03:00;;;;;;;2.80;1.95;;;17.90;99.90;;;;;;5031209;28;20120;-69
2022/09/08 12:06:09;;;;;;;3.75;2.33;;;17.80;99.90;;;;;;5032330;28;20041;-69
2022/09/08 12:08:41;;;;;;;5.05;2.13;;;17.70;99.90;;;;;;5032571;28;20041;-68
2022/09/08 12:11:26;;;;;;;3.50;2.33;;;17.50;99.90;;;;;;5032112;28;20038;-69
2022/09/08 12:14:11;;;;;;;4.13;1.95;;;17.70;99.90;;;;;;5031246;28;20056;-69
2022/09/08 12:17:00;;;;;;;3.97;2.05;;;17.80;99.90;;;;;;5014562;28;20041;-68
2022/09/08 12:19:53;;;;;;;2.70;1.63;;;17.90;99.90;;;;;;5012675;28;20076;-69
2022/09/08 12:22:37;;;;;;;2.47;1.55;;;17.50;99.90;;;;;;5032493;28;20048;-69
2022/09/08 12:25:28;;;;;;;5.35;2.08;;;17.90;99.90;;;;;;5032303;28;20045;-68
2022/09/08 12:28:07;;;;;;;5.50;2.35;;;17.50;99.90;;;;;;5032078;28;20065;-70
2022/09/08 12:31:03;;;;;;;2.22;2.03;;;17.40;99.90;;;;;;5031995;28;20080;-69
2022/09/08 12:34:09;;;;;;;2.60;2.25;;;17.70;99.90;;;;;;5032343;28;20042;-69
2022/09/08 12:36:41;;;;;;;3.20;1.77;;;17.70;99.90;;;;;;5051869;28;20059;-69
2022/09/08 12:39:12;;;;;;;3.90;1.95;;;17.50;99.90;;;;;;5051977;28;20044;-69
2022/09/08 12:42:09;;;;;;;4.57;2.55;;;17.50;99.90;;;;;;5050575;28;20111;-69
2022/09/08 12:44:54;;;;;;;2.70;2.00;;;17.80;99.90;;;;;;5051560;28;20414;-70
2022/09/08 12:47:29;;;;;;;2.78;2.53;;;17.60;99.90;;;;;;5051869;28;20475;-69
2022/09/08 12:50:02;;;;;;;3.90;2.10;;;17.60;99.90;;;;;;5051482;28;20091;-71
2022/09/08 12:52:31;;;;;;;;;;;17.50;99.90;;;;;;5052240;28;20044;-71
2022/09/08 12:55:14;;;;;;;4.88;2.42;;;17.80;99.90;;;;;;5050365;28;19917;-72
2022/09/08 12:57:54;;;;;;;3.83;2.88;;;17.90;99.90;;;;;;5051548;28;20407;-71
2022/09/08 13:00:26;;;;;;;4.47;2.88;;;18.00;99.90;;;;;;5051324;28;20041;-71
2022/09/08 13:03:13;;;;;;;3.58;3.25;;;17.60;99.90;;;;;;5050067;28;20048;-71
2022/09/08 13:06:00;;;;;;;7.25;4.13;;;17.80;99.90;;;;;;5051357;28;20114;-72
2022/09/08 13:09:07;;;;;;;5.97;3.47;;;18.00;99.90;;;;;;5051785;28;20037;-71
2022/09/08 13:11:33;;;;;;;6.22;4.03;;;18.00;99.90;;;;;;5051372;28;20455;-71
2022/09/08 13:14:08;;;;;;;5.00;3.40;;;17.70;99.90;;;;;;5051368;28;20111;-71
2022/09/08 13:16:57;;;;;;;4.60;3.50;;;17.50;99.90;;;;;;5051760;28;20036;-71
2022/09/08 13:19:27;;;;;;;6.40;3.70;;;17.70;99.90;;;;;;5051322;28;20044;-71
2022/09/08 13:22:32;;;;;;;5.18;3.58;;;17.70;99.90;;;;;;5051421;28;20521;-71
2022/09/08 13:25:22;;;;;;;4.45;3.78;;;17.60;99.90;;;;;;5050410;28;20053;-71